Time;durP1;ratioP1;P1;durP2;ratioP2;P2;SDS_P1;SDS_P2;PMS_P1;PMS_P2;Temp;Humidity;BMP_temperature;BMP_pressure;BME280_temperature;BME280_humidity;BME280_pressure;Samples;Min_cycle;Max_cycle;Signal;HPM_P1;HPM_P2
2023/06/25 00:01:03;;;;;;;15.00;9.57;;;13.00;99.90;12.20;100843;;;;568556;249;24123;-86
2023/06/25 00:03:31;;;;;;;14.07;9.00;;;12.90;99.90;12.20;100838;;;;568366;249;24091;-87
2023/06/25 00:06:02;;;;;;;21.50;13.37;;;12.90;99.90;12.20;100839;;;;562945;248;35383;-84
2023/06/25 00:08:27;;;;;;;23.03;11.17;;;12.90;99.90;12.20;100837;;;;568052;249;24165;-83
2023/06/25 00:10:55;;;;;;;13.37;8.93;;;12.90;99.90;12.10;100835;;;;568115;249;24194;-83
2023/06/25 00:13:23;;;;;;;12.03;8.83;;;12.80;99.90;12.10;100837;;;;567716;249;24135;-83
2023/06/25 00:15:51;;;;;;;14.57;9.23;;;12.80;99.90;12.10;100846;;;;567730;249;24116;-83
2023/06/25 00:18:19;;;;;;;19.80;10.30;;;12.80;99.90;12.10;100834;;;;567624;249;24095;-82
2023/06/25 00:20:46;;;;;;;23.80;9.63;;;12.70;99.90;12.00;100832;;;;568023;249;24156;-82
2023/06/25 00:23:14;;;;;;;17.53;10.43;;;13.30;99.90;12.00;100826;;;;567861;249;24094;-81
2023/06/25 00:25:43;;;;;;;16.37;9.40;;;12.60;99.90;12.00;100821;;;;568016;249;24124;-84
2023/06/25 00:28:11;;;;;;;16.30;9.33;;;12.60;99.90;12.00;100823;;;;567885;249;24123;-83
2023/06/25 00:30:39;;;;;;;14.70;8.57;;;12.70;99.90;11.90;100826;;;;567485;249;24115;-83
2023/06/25 00:33:08;;;;;;;20.53;10.40;;;12.60;99.90;11.90;100828;;;;568421;249;24203;-81
2023/06/25 00:35:54;;;;;;;15.97;9.23;;;12.50;99.90;11.90;100835;;;;568183;248;24127;-83
2023/06/25 00:38:19;;;;;;;26.03;10.30;;;12.70;99.90;11.90;100829;;;;566700;253;24109;-81
2023/06/25 00:40:50;;;;;;;16.47;10.13;;;12.60;99.90;11.90;100825;;;;557592;254;24185;-84
2023/06/25 00:43:16;;;;;;;21.40;9.10;;;12.60;99.90;11.80;100819;;;;558905;253;24132;-81
2023/06/25 00:45:44;;;;;;;16.73;9.53;;;12.50;99.90;11.80;100824;;;;569120;248;24147;-82
2023/06/25 00:48:11;;;;;;;19.63;10.20;;;12.70;99.90;11.90;100816;;;;567254;253;24176;-79
2023/06/25 00:50:42;;;;;;;22.03;10.17;;;12.60;99.90;11.90;100811;;;;558828;253;24189;-82
2023/06/25 00:53:08;;;;;;;17.57;9.40;;;12.60;99.90;11.90;100817;;;;558987;253;24157;-79
2023/06/25 00:55:40;;;;;;;16.70;9.43;;;12.50;99.90;11.90;100821;;;;569244;249;24105;-81
2023/06/25 00:58:04;;;;;;;18.60;10.73;;;12.60;99.90;11.90;100822;;;;558843;253;24191;-79
2023/06/25 01:00:33;;;;;;;14.47;9.10;;;12.60;99.90;11.90;100817;;;;559030;254;24191;-79
2023/06/25 01:03:13;;;;;;;22.80;9.77;;;12.50;99.90;11.90;100818;;;;567216;253;24130;-80
2023/06/25 01:05:47;;;;;;;17.63;10.17;;;9.40;99.90;11.90;100806;;;;558259;253;24162;-79
2023/06/25 01:08:18;;;;;;;19.87;9.50;;;12.50;99.90;11.90;100809;;;;557143;254;24168;-80
2023/06/25 01:10:44;;;;;;;17.30;9.97;;;12.80;99.90;11.90;100802;;;;568877;249;24030;-80
2023/06/25 01:13:12;;;;;;;20.10;9.63;;;12.40;99.90;12.00;100799;;;;569020;249;23987;-81
2023/06/25 01:15:41;;;;;;;15.40;10.27;;;12.60;99.90;12.00;100801;;;;568960;249;23983;-81
2023/06/25 01:18:14;;;;;;;18.00;9.43;;;12.70;99.90;12.00;100805;;;;581432;243;24166;-81
2023/06/25 01:20:38;;;;;;;23.20;10.73;;;12.70;99.90;12.00;100798;;;;557422;253;24180;-79
2023/06/25 01:23:09;;;;;;;19.53;10.13;;;12.70;99.90;12.00;100792;;;;557428;254;24118;-80
2023/06/25 01:25:34;;;;;;;16.53;9.53;;;12.70;99.90;12.00;100791;;;;567421;249;24174;-80
2023/06/25 01:28:05;;;;;;;20.03;9.97;;;12.70;99.90;12.00;100792;;;;557200;253;24167;-82
2023/06/25 01:30:31;;;;;;;16.53;10.03;;;12.80;99.90;12.10;100785;;;;567361;249;24118;-85
2023/06/25 01:33:01;;;;;;;13.93;9.70;;;12.70;99.90;12.00;100780;;;;567532;249;24118;-83
2023/06/25 01:35:29;;;;;;;19.63;10.57;;;12.80;99.90;12.00;100776;;;;557633;253;24120;-83
2023/06/25 01:37:58;;;;;;;23.50;9.27;;;12.70;99.90;12.00;100776;;;;557028;254;25161;-80
2023/06/25 01:40:29;;;;;;;17.07;10.13;;;12.70;99.90;12.00;100769;;;;567869;249;24035;-79
2023/06/25 01:42:54;;;;;;;19.03;10.70;;;12.70;99.90;12.00;100777;;;;557007;253;24132;-82
2023/06/25 01:45:21;;;;;;;16.50;9.73;;;12.70;99.90;12.00;100769;;;;557201;254;24156;-79
2023/06/25 01:47:50;;;;;;;17.30;10.10;;;12.70;99.90;12.00;100773;;;;556133;253;24122;-84
2023/06/25 01:50:17;;;;;;;19.00;9.67;;;12.70;99.90;12.00;100769;;;;557327;254;24171;-80
2023/06/25 01:52:46;;;;;;;17.27;9.73;;;12.60;99.90;11.90;100767;;;;556293;253;24168;-80
2023/06/25 01:55:14;;;;;;;20.07;10.67;;;12.60;99.90;11.90;100769;;;;567313;252;24183;-80
2023/06/25 01:57:41;;;;;;;25.30;11.23;;;12.60;99.90;11.90;100765;;;;577621;248;24103;-83
2023/06/25 02:00:13;;;;;;;14.43;9.47;;;12.60;99.90;11.90;100771;;;;557997;253;24134;-83
2023/06/25 02:02:37;;;;;;;21.17;10.30;;;12.60;99.90;11.90;100769;;;;568215;249;23990;-83
2023/06/25 02:05:08;;;;;;;23.37;10.80;;;12.60;99.90;12.00;100771;;;;557813;253;24151;-83
2023/06/25 02:07:33;;;;;;;17.53;10.10;;;12.60;99.90;12.00;100773;;;;557609;253;24107;-81
2023/06/25 02:10:01;;;;;;;18.03;11.20;;;12.60;99.90;11.90;100767;;;;558114;253;24147;-83
2023/06/25 02:12:29;;;;;;;19.47;11.33;;;12.60;99.90;11.90;100772;;;;557757;254;24114;-81
2023/06/25 02:14:57;;;;;;;12.23;9.50;;;12.60;99.90;11.90;100764;;;;557184;253;24114;-79
2023/06/25 02:17:25;;;;;;;20.70;11.23;;;12.60;99.90;11.90;100769;;;;555801;253;24140;-79
2023/06/25 02:19:53;;;;;;;17.57;9.73;;;12.50;99.90;11.90;100766;;;;557174;254;24173;-79
2023/06/25 02:22:21;;;;;;;20.47;10.60;;;12.40;99.90;11.90;100766;;;;556106;253;24137;-77
2023/06/25 02:24:49;;;;;;;14.80;9.60;;;12.60;99.90;11.90;100761;;;;557803;254;24114;-80
2023/06/25 02:27:17;;;;;;;16.53;10.63;;;12.50;99.90;11.90;100772;;;;555951;253;24166;-77
2023/06/25 02:29:44;;;;;;;21.73;10.93;;;12.50;99.90;11.90;100773;;;;557179;254;24141;-80
2023/06/25 02:32:16;;;;;;;24.03;11.43;;;12.50;99.90;11.90;100767;;;;556984;253;24112;-81
2023/06/25 02:34:40;;;;;;;20.50;11.23;;;12.60;99.90;12.00;100765;;;;556651;254;24151;-79
2023/06/25 02:37:14;;;;;;;19.90;9.53;;;12.60;99.90;12.00;100769;;;;556941;254;24158;-80
2023/06/25 02:39:40;;;;;;;16.13;9.97;;;12.70;99.90;12.10;100760;;;;557405;253;24220;-79
2023/06/25 02:42:09;;;;;;;19.07;10.47;;;12.70;99.90;12.10;100763;;;;567364;249;24119;-78
2023/06/25 02:44:37;;;;;;;18.87;9.00;;;12.80;99.90;12.10;100772;;;;567231;249;24140;-79
2023/06/25 02:47:10;;;;;;;15.17;9.63;;;12.80;99.90;12.20;100769;;;;567458;249;24085;-77
2023/06/25 02:49:35;;;;;;;13.63;8.87;;;12.90;99.90;12.20;100760;;;;557350;253;24128;-78
2023/06/25 02:52:03;;;;;;;21.93;10.23;;;12.90;99.90;12.30;100763;;;;567571;249;24112;-78
2023/06/25 02:54:30;;;;;;;20.90;10.27;;;13.00;99.90;12.40;100763;;;;567814;249;24117;-78
2023/06/25 02:56:59;;;;;;;21.73;10.43;;;13.00;99.90;12.40;100768;;;;567836;248;25214;-77
2023/06/25 02:59:27;;;;;;;20.63;8.47;;;13.00;99.90;12.50;100761;;;;567505;249;24125;-78
2023/06/25 03:01:55;;;;;;;20.47;9.97;;;13.30;99.90;12.60;100766;;;;567527;249;24110;-79
2023/06/25 03:04:23;;;;;;;17.50;10.23;;;13.20;99.90;12.60;100760;;;;567907;249;24195;-77
2023/06/25 03:06:55;;;;;;;23.50;10.40;;;13.30;99.90;12.70;100766;;;;568708;248;24094;-77
2023/06/25 03:09:19;;;;;;;14.83;8.37;;;13.30;99.90;12.70;100760;;;;568664;248;24123;-81
2023/06/25 03:11:47;;;;;;;13.63;8.50;;;13.30;99.90;12.80;100763;;;;568414;249;24194;-81
2023/06/25 03:14:15;;;;;;;16.60;9.00;;;13.40;99.90;13.10;100759;;;;568475;249;24135;-81
2023/06/25 03:16:43;;;;;;;18.43;9.57;;;13.70;99.90;13.80;100760;;;;568118;249;24115;-80
2023/06/25 03:19:11;;;;;;;19.33;9.90;;;14.80;99.90;14.50;100760;;;;568069;248;24156;-79
2023/06/25 03:21:40;;;;;;;12.77;9.73;;;15.60;99.90;15.30;100760;;;;567961;249;24129;-77
2023/06/25 03:24:09;;;;;;;20.00;9.97;;;16.40;99.90;16.00;100763;;;;567790;249;24195;-78
2023/06/25 03:26:37;;;;;;;21.07;10.03;;;16.30;99.90;16.60;100766;;;;568139;249;24182;-83
2023/06/25 03:29:05;;;;;;;13.17;9.23;;;17.70;99.90;17.30;100772;;;;568455;249;24074;-84
2023/06/25 03:31:34;;;;;;;17.30;9.47;;;18.40;99.90;17.90;100773;;;;567897;249;24125;-81
2023/06/25 03:34:06;;;;;;;11.67;8.20;;;19.00;99.90;18.50;100765;;;;568051;248;23119;-80
2023/06/25 03:36:35;;;;;;;10.37;7.10;;;19.60;99.90;19.10;100775;;;;567434;249;23124;-82
2023/06/25 03:39:00;;;;;;;11.07;8.00;;;20.20;99.90;19.70;100767;;;;558009;253;23194;-84
2023/06/25 03:41:32;;;;;;;9.90;7.97;;;20.20;99.90;20.30;100767;;;;567812;249;24154;-81
2023/06/25 03:43:56;;;;;;;9.70;6.97;;;20.80;99.90;20.80;100764;;;;567542;249;24085;-84
2023/06/25 03:46:24;;;;;;;8.27;7.07;;;21.30;99.90;21.40;100763;;;;567745;249;24102;-83
2023/06/25 03:48:52;;;;;;;9.63;7.43;;;21.90;99.90;21.90;100765;;;;567681;249;23120;-82
2023/06/25 03:51:19;;;;;;;9.27;6.70;;;22.50;99.90;22.40;100760;;;;567867;249;23156;-84
2023/06/25 03:53:47;;;;;;;7.73;6.27;;;23.00;99.90;22.90;100765;;;;567604;249;23173;-82
2023/06/25 03:56:16;;;;;;;7.27;6.57;;;23.90;99.90;23.40;100766;;;;568243;249;23106;-84
2023/06/25 03:58:44;;;;;;;7.27;5.87;;;23.90;99.90;23.90;100768;;;;568091;249;24193;-80
2023/06/25 04:01:13;;;;;;;10.77;7.60;;;24.50;99.90;24.40;100775;;;;558258;253;23160;-83
2023/06/25 04:03:42;;;;;;;8.50;6.37;;;25.00;99.90;24.70;100770;;;;568349;249;23124;-81
2023/06/25 04:06:10;;;;;;;11.23;6.90;;;25.40;99.90;25.20;100763;;;;568432;249;23104;-83
2023/06/25 04:08:45;;;;;;;6.43;5.60;;;26.30;99.90;25.70;100767;;;;568648;249;24094;-79
2023/06/25 04:11:13;;;;;;;8.20;5.80;;;26.20;99.90;26.20;100771;;;;567126;249;24135;-84
2023/06/25 04:13:38;;;;;;;7.30;5.45;;;26.70;99.90;26.60;100772;;;;566844;249;23228;-80
2023/06/25 04:16:09;;;;;;;5.90;5.40;;;27.30;97.90;27.10;100776;;;;568393;249;23248;-79
2023/06/25 04:18:38;;;;;;;6.37;5.78;;;27.80;96.60;27.60;100782;;;;558985;253;23175;-79
2023/06/25 04:21:06;;;;;;;6.80;5.47;;;28.30;94.90;28.30;100772;;;;568197;248;23108;-78
2023/06/25 04:23:31;;;;;;;6.43;5.30;;;29.00;93.60;28.90;100777;;;;564527;249;23131;-78
2023/06/25 04:26:00;;;;;;;5.68;5.18;;;29.70;91.20;29.50;100772;;;;582632;242;23120;-84
2023/06/25 04:28:28;;;;;;;6.32;5.35;;;30.30;88.50;30.10;100779;;;;582988;243;24205;-78
2023/06/25 04:30:56;;;;;;;7.25;5.12;;;31.00;84.60;30.70;100783;;;;582805;243;23070;-80
2023/06/25 04:33:31;;;;;;;6.03;5.53;;;31.60;81.20;31.20;100781;;;;582385;243;23069;-80
2023/06/25 04:35:59;;;;;;;6.32;5.78;;;32.10;77.60;31.50;100782;;;;581578;243;24145;-80
2023/06/25 04:38:28;;;;;;;6.43;5.68;;;32.50;74.40;32.20;100791;;;;582562;243;23117;-84
2023/06/25 04:40:56;;;;;;;6.18;5.68;;;33.00;71.20;32.40;100794;;;;568767;251;23206;-88
2023/06/25 04:43:24;;;;;;;6.53;5.82;;;33.40;69.40;32.80;100801;;;;580438;243;24078;-86
2023/06/25 04:45:52;;;;;;;5.90;5.37;;;33.80;66.80;33.20;100797;;;;581708;243;23081;-87
2023/06/25 04:48:19;;;;;;;6.10;5.50;;;34.20;65.60;33.50;100795;;;;581873;243;23088;-87
2023/06/25 04:50:50;;;;;;;5.78;5.10;;;34.60;63.40;33.80;100793;;;;581878;243;23077;-87
2023/06/25 04:53:19;;;;;;;8.40;5.15;;;34.90;62.50;33.80;100798;;;;581527;243;23073;-88
2023/06/25 04:55:43;;;;;;;6.18;5.57;;;35.00;61.00;34.00;100798;;;;581211;243;23073;-85
2023/06/25 04:58:11;;;;;;;5.72;4.97;;;35.20;60.00;34.30;100802;;;;582001;243;23088;-86
2023/06/25 05:00:39;;;;;;;5.20;4.80;;;35.60;59.70;35.00;100789;;;;582449;243;23085;-86
2023/06/25 05:03:07;;;;;;;5.62;5.03;;;36.10;58.60;35.20;100789;;;;582222;243;23090;-83
2023/06/25 05:05:39;;;;;;;6.87;4.80;;;36.40;56.90;35.60;100796;;;;566859;251;23129;-86
2023/06/25 05:08:06;;;;;;;4.93;4.57;;;36.80;56.60;36.10;100799;;;;582571;243;23078;-88
2023/06/25 05:10:34;;;;;;;6.93;5.03;;;37.30;55.50;36.50;100797;;;;562055;251;23159;-85
2023/06/25 05:13:00;;;;;;;5.12;4.70;;;38.10;53.50;36.80;100799;;;;582178;243;23135;-84
2023/06/25 05:15:27;;;;;;;4.25;3.95;;;38.00;53.40;37.20;100807;;;;573553;246;23101;-86
2023/06/25 05:17:55;;;;;;;5.00;4.50;;;38.40;52.60;37.50;100807;;;;573958;246;23107;-88
2023/06/25 05:20:23;;;;;;;4.72;4.25;;;38.70;52.20;37.80;100802;;;;583017;243;23083;-87
2023/06/25 05:22:55;;;;;;;5.78;5.22;;;39.00;51.80;38.20;100797;;;;563499;251;23141;-88
2023/06/25 05:25:19;;;;;;;5.40;4.87;;;39.30;50.80;38.50;100799;;;;581439;243;23107;-86
2023/06/25 05:27:54;;;;;;;6.60;5.07;;;39.50;50.40;39.10;100795;;;;573292;246;23099;-85
2023/06/25 05:30:24;;;;;;;5.35;4.85;;;40.00;50.00;39.70;100798;;;;575079;246;23103;-85
2023/06/25 05:32:49;;;;;;;5.72;4.85;;;40.60;49.00;40.20;100793;;;;583037;239;23118;-86
2023/06/25 05:35:17;;;;;;;4.95;4.55;;;41.10;48.50;40.80;100794;;;;584261;242;23072;-87
2023/06/25 05:37:45;;;;;;;4.57;4.20;;;41.60;47.70;41.10;100798;;;;583945;242;24104;-87
2023/06/25 05:40:16;;;;;;;4.40;4.00;;;41.90;47.10;41.40;100790;;;;583533;242;23111;-86
2023/06/25 05:42:41;;;;;;;4.70;4.20;;;42.20;46.40;41.80;100795;;;;583637;242;23118;-88
2023/06/25 05:45:12;;;;;;;4.72;4.20;;;42.60;46.00;42.30;100791;;;;583749;242;23097;-85
2023/06/25 05:47:40;;;;;;;3.97;3.67;;;43.10;45.30;42.70;100789;;;;560489;251;24158;-89
2023/06/25 05:50:08;;;;;;;6.47;4.12;;;43.40;44.30;43.10;100783;;;;581940;242;23114;-88
2023/06/25 05:52:33;;;;;;;3.92;3.62;;;43.80;43.90;43.60;100787;;;;563975;251;23119;-88
2023/06/25 05:55:01;;;;;;;4.25;3.85;;;44.30;43.30;44.10;100795;;;;580369;247;23091;-87
2023/06/25 05:57:31;;;;;;;4.32;3.95;;;44.90;42.80;44.20;100794;;;;564818;250;23218;-87
2023/06/25 05:59:59;;;;;;;4.45;4.00;;;44.90;41.90;44.30;100784;;;;563715;250;23137;-87
2023/06/25 06:02:26;;;;;;;3.40;3.20;;;45.00;41.50;44.80;100793;;;;571763;247;23083;-88
2023/06/25 06:04:54;;;;;;;3.75;3.42;;;45.40;42.00;45.10;100778;;;;564822;250;23165;-88
2023/06/25 06:07:22;;;;;;;4.32;3.72;;;45.70;41.00;45.50;100783;;;;563715;251;23260;-88
2023/06/25 06:10:00;;;;;;;4.20;3.85;;;46.00;40.50;46.00;100783;;;;571594;247;23163;-89
2023/06/25 06:12:25;;;;;;;4.07;3.78;;;46.40;40.40;46.40;100787;;;;564399;250;23138;-87
2023/06/25 06:14:49;;;;;;;7.70;3.60;;;46.90;39.90;46.70;100786;;;;563068;251;23149;-86
2023/06/25 06:17:21;;;;;;;6.40;4.87;;;47.20;39.30;47.20;100781;;;;571682;247;23125;-88
2023/06/25 06:19:45;;;;;;;4.10;3.80;;;47.70;39.50;47.70;100778;;;;556556;255;46548;-87
2023/06/25 06:22:14;;;;;;;3.42;3.20;;;48.20;38.20;47.90;100776;;;;571738;247;23139;-87
2023/06/25 06:24:44;;;;;;;3.90;3.50;;;48.40;37.50;48.20;100781;;;;564382;250;23194;-86
2023/06/25 06:27:09;;;;;;;4.50;3.45;;;48.90;36.90;48.40;100785;;;;562558;251;23124;-86
2023/06/25 06:29:40;;;;;;;3.53;3.33;;;48.90;36.80;48.60;100784;;;;571635;247;23114;-87
2023/06/25 06:32:09;;;;;;;5.45;3.60;;;49.10;37.20;48.80;100787;;;;564874;242;23134;-86
2023/06/25 06:34:33;;;;;;;4.68;3.72;;;49.30;36.40;49.10;100788;;;;560868;251;23113;-87
2023/06/25 06:37:05;;;;;;;5.32;3.75;;;49.50;36.30;49.30;100789;;;;582049;241;23114;-87
2023/06/25 06:39:34;;;;;;;3.55;3.25;;;49.90;35.80;49.50;100786;;;;574555;246;23204;-86
2023/06/25 06:41:59;;;;;;;3.90;3.55;;;50.10;35.50;49.80;100793;;;;574580;246;23082;-85
2023/06/25 06:44:30;;;;;;;4.45;3.85;;;50.00;35.10;49.70;100798;;;;582799;242;23067;-88
2023/06/25 06:46:55;;;;;;;4.28;3.30;;;50.00;35.10;49.80;100797;;;;562577;251;23121;-88
2023/06/25 06:49:23;;;;;;;3.45;3.15;;;50.00;35.10;50.00;100800;;;;582386;243;23101;-86
2023/06/25 06:51:52;;;;;;;4.18;3.40;;;50.70;34.50;50.40;100791;;;;582371;241;23088;-89
2023/06/25 06:54:21;;;;;;;4.75;3.25;;;50.90;34.30;50.70;100796;;;;580270;241;23145;-87
2023/06/25 06:56:52;;;;;;;2.62;2.42;;;50.90;34.30;50.80;100798;;;;583499;244;23079;-86
2023/06/25 06:59:20;;;;;;;4.55;4.07;;;51.00;33.80;50.90;100802;;;;583637;239;23006;-89
2023/06/25 07:01:45;;;;;;;3.12;2.85;;;51.20;33.80;51.20;100806;;;;585264;239;23012;-89
2023/06/25 07:04:15;;;;;;;14.23;12.88;;;51.30;33.20;51.30;100800;;;;585206;239;23146;-87
2023/06/25 07:06:40;;;;;;;3.65;3.35;;;51.40;33.10;51.50;100797;;;;585948;239;23028;-88
2023/06/25 07:09:08;;;;;;;5.18;3.12;;;51.60;32.90;51.90;100795;;;;576360;246;23110;-87
2023/06/25 07:11:36;;;;;;;3.15;2.95;;;51.80;32.60;52.00;100799;;;;580616;244;23055;-86
2023/06/25 07:14:04;;;;;;;3.90;3.37;;;52.10;32.50;51.90;100797;;;;580861;244;23070;-89
2023/06/25 07:16:32;;;;;;;4.70;3.45;;;52.10;32.60;52.10;100797;;;;581234;243;23077;-90
2023/06/25 07:19:01;;;;;;;3.35;3.10;;;52.10;32.60;52.50;100799;;;;583788;242;23149;-88
2023/06/25 07:21:28;;;;;;;4.30;3.42;;;52.50;32.30;52.70;100795;;;;563300;251;23188;-89
2023/06/25 07:23:59;;;;;;;3.20;3.00;;;52.80;32.30;52.90;100796;;;;581835;243;23080;-91
2023/06/25 07:26:27;;;;;;;7.12;3.20;;;53.30;32.00;53.30;100790;;;;583496;242;23091;-85
2023/06/25 07:28:55;;;;;;;7.90;4.72;;;53.30;32.00;53.50;100790;;;;562778;251;23172;-88
2023/06/25 07:31:20;;;;;;;3.20;3.00;;;53.60;31.80;53.50;100797;;;;582166;243;23088;-88
2023/06/25 07:33:51;;;;;;;9.20;3.62;;;53.70;31.40;53.70;100795;;;;584099;242;23064;-86
2023/06/25 07:36:20;;;;;;;4.07;3.70;;;53.80;31.40;54.00;100792;;;;573718;246;23184;-88
2023/06/25 07:38:44;;;;;;;9.52;3.42;;;54.10;31.60;54.30;100793;;;;581478;243;24126;-84
2023/06/25 07:41:12;;;;;;;4.60;3.30;;;54.40;31.40;54.20;100793;;;;583331;242;23115;-85
2023/06/25 07:43:41;;;;;;;5.72;3.42;;;54.50;30.90;54.00;100793;;;;573219;246;23104;-86
2023/06/25 07:46:09;;;;;;;4.25;3.85;;;54.20;31.10;53.80;100795;;;;581397;243;23125;-87
2023/06/25 07:48:38;;;;;;;19.87;18.27;;;54.00;31.00;53.80;100792;;;;583058;242;23056;-87
2023/06/25 07:51:06;;;;;;;5.90;3.70;;;53.90;31.00;54.10;100798;;;;583225;242;23139;-87
2023/06/25 07:53:34;;;;;;;3.72;3.40;;;54.20;30.90;54.10;100801;;;;574442;246;23102;-87
2023/06/25 07:56:02;;;;;;;4.85;3.45;;;54.20;30.40;54.20;100797;;;;583528;242;23134;-86
2023/06/25 07:58:33;;;;;;;3.53;3.30;;;54.20;30.40;54.10;100797;;;;585207;242;23090;-87
2023/06/25 08:01:02;;;;;;;3.70;3.40;;;54.20;30.20;53.80;100790;;;;574424;246;23133;-86
2023/06/25 08:03:29;;;;;;;3.83;3.47;;;54.00;30.20;54.00;100800;;;;581952;243;23072;-87
2023/06/25 08:05:54;;;;;;;3.90;3.55;;;54.10;30.50;54.30;100800;;;;583881;242;23057;-87
2023/06/25 08:08:22;;;;;;;5.65;3.70;;;53.50;30.00;52.80;100805;;;;563841;251;24172;-86
2023/06/25 08:10:51;;;;;;;3.00;2.80;;;52.20;30.70;51.30;100807;;;;583218;243;24191;-86
2023/06/25 08:13:19;;;;;;;4.07;3.65;;;52.30;30.70;51.20;100800;;;;583969;242;23133;-87
2023/06/25 08:15:47;;;;;;;5.37;3.33;;;51.60;31.40;51.90;100800;;;;584027;242;23089;-86
2023/06/25 08:18:15;;;;;;;5.18;3.35;;;51.90;31.20;50.50;100806;;;;584118;242;23115;-88
2023/06/25 08:20:46;;;;;;;4.00;3.37;;;51.20;30.80;48.30;100802;;;;584677;242;23110;-86
2023/06/25 08:23:11;;;;;;;5.90;4.25;;;49.40;31.50;48.40;100801;;;;584331;242;23142;-87
2023/06/25 08:25:41;;;;;;;4.12;3.72;;;48.80;33.00;48.30;100802;;;;579510;242;35271;-85
2023/06/25 08:28:07;;;;;;;4.15;3.15;;;48.30;32.40;47.60;100802;;;;584409;242;23123;-86
2023/06/25 08:30:35;;;;;;;3.53;3.33;;;48.20;32.40;45.70;100804;;;;584763;242;23077;-86
2023/06/25 08:33:03;;;;;;;6.05;4.37;;;46.90;33.10;43.60;100807;;;;582618;243;23138;-86
2023/06/25 08:35:31;;;;;;;5.90;3.70;;;45.20;34.10;41.40;100805;;;;574075;246;23091;-87
2023/06/25 08:37:59;;;;;;;11.50;5.57;;;43.20;35.40;39.70;100800;;;;582341;243;23104;-86
2023/06/25 08:40:31;;;;;;;4.37;3.90;;;41.50;36.80;38.30;100795;;;;583629;242;23108;-87
2023/06/25 08:42:55;;;;;;;4.50;3.85;;;39.90;38.10;36.80;100797;;;;582873;242;23069;-87
2023/06/25 08:45:23;;;;;;;4.78;3.92;;;38.40;39.70;35.80;100791;;;;583394;242;23102;-87
2023/06/25 08:48:01;;;;;;;9.48;4.95;;;37.10;40.90;35.10;100789;;;;581611;243;23062;-86
2023/06/25 08:50:29;;;;;;;5.60;3.90;;;34.90;44.60;34.00;100786;;;;581974;243;24104;-87
2023/06/25 08:52:57;;;;;;;9.23;4.20;;;34.80;44.50;33.20;100785;;;;572192;246;23189;-84
2023/06/25 08:55:25;;;;;;;6.68;4.50;;;34.00;45.70;33.60;100784;;;;582094;243;23068;-85
2023/06/25 08:57:54;;;;;;;7.43;4.25;;;35.10;46.40;35.30;100772;;;;583545;242;23115;-86
2023/06/25 09:00:22;;;;;;;6.45;3.53;;;35.10;46.30;37.80;100781;;;;573708;246;23103;-85
2023/06/25 09:02:50;;;;;;;4.22;3.67;;;37.40;44.70;40.90;100785;;;;582790;243;23075;-86
2023/06/25 09:05:18;;;;;;;4.80;4.28;;;40.40;40.60;42.90;100786;;;;585887;242;23075;-86
2023/06/25 09:07:46;;;;;;;6.12;4.10;;;42.70;38.90;44.80;100785;;;;564557;250;23127;-88
2023/06/25 09:10:17;;;;;;;4.70;4.18;;;44.80;37.40;46.30;100790;;;;583474;242;23089;-86
2023/06/25 09:12:42;;;;;;;7.87;4.50;;;46.60;35.90;47.00;100788;;;;584202;242;23130;-86
2023/06/25 09:15:12;;;;;;;7.20;4.40;;;47.60;35.50;46.70;100786;;;;563763;251;23157;-86
2023/06/25 09:17:37;;;;;;;8.35;5.80;;;47.80;35.30;45.50;100790;;;;577040;243;35167;-87
2023/06/25 09:20:12;;;;;;;7.40;6.55;;;47.10;35.40;45.00;100784;;;;574099;246;23095;-86
2023/06/25 09:22:55;;;;;;;7.37;5.40;;;46.80;36.10;45.50;100783;;;;581821;243;23141;-87
2023/06/25 09:25:23;;;;;;;7.68;4.82;;;46.70;36.00;46.40;100778;;;;563179;251;23126;-86
2023/06/25 09:27:51;;;;;;;4.65;4.28;;;47.50;35.80;47.50;100778;;;;580983;243;23120;-84
2023/06/25 09:30:19;;;;;;;7.50;4.95;;;48.40;35.00;48.00;100786;;;;583387;242;23113;-85
2023/06/25 09:32:49;;;;;;;6.30;4.95;;;49.00;34.50;48.70;100775;;;;563106;251;23126;-86
2023/06/25 09:35:26;;;;;;;8.93;5.25;;;49.80;34.00;49.70;100780;;;;590425;240;23062;-87
2023/06/25 09:37:54;;;;;;;6.15;5.45;;;50.70;33.00;49.60;100767;;;;563063;251;23182;-86
2023/06/25 09:40:19;;;;;;;8.07;5.47;;;50.90;32.40;49.10;100779;;;;581537;243;23127;-86
2023/06/25 09:42:50;;;;;;;8.10;4.32;;;50.70;32.50;49.30;100775;;;;582955;242;23107;-86
2023/06/25 09:45:18;;;;;;;5.82;4.57;;;50.70;33.00;49.90;100778;;;;583403;242;23068;-86
2023/06/25 09:47:46;;;;;;;6.62;4.57;;;51.10;32.40;49.10;100781;;;;581661;243;24146;-85
2023/06/25 09:50:19;;;;;;;8.88;4.62;;;50.70;32.20;48.70;100780;;;;562915;251;23173;-86
2023/06/25 09:52:59;;;;;;;6.78;5.10;;;50.30;33.00;49.20;100782;;;;581010;243;25175;-86
2023/06/25 09:55:26;;;;;;;5.10;4.70;;;50.50;32.80;49.70;100780;;;;563069;251;23187;-85
2023/06/25 09:58:00;;;;;;;5.20;4.55;;;50.90;32.50;48.90;100784;;;;581980;243;26322;-85
2023/06/25 10:00:28;;;;;;;5.07;4.68;;;50.40;32.60;48.30;100792;;;;563001;251;23168;-84
2023/06/25 10:02:59;;;;;;;8.93;4.53;;;49.80;32.60;47.60;100791;;;;582220;243;24112;-83
2023/06/25 10:05:23;;;;;;;5.10;4.70;;;49.10;33.20;47.70;100775;;;;563232;251;23123;-84
2023/06/25 10:07:54;;;;;;;6.37;5.12;;;49.10;33.40;48.50;100774;;;;582070;243;24100;-85
2023/06/25 10:10:29;;;;;;;4.40;4.00;;;49.70;33.30;48.40;100779;;;;563540;249;23170;-85
2023/06/25 10:12:56;;;;;;;6.20;5.53;;;49.80;32.70;47.20;100782;;;;582098;243;23151;-84
2023/06/25 10:15:32;;;;;;;5.60;5.07;;;49.00;33.50;47.30;100781;;;;583695;241;23087;-84
2023/06/25 10:18:00;;;;;;;6.12;4.70;;;48.70;33.70;46.90;100783;;;;584409;242;23201;-85
2023/06/25 10:20:32;;;;;;;8.80;5.15;;;47.70;35.40;46.30;100770;;;;592605;242;23073;-84
2023/06/25 10:23:13;;;;;;;5.82;5.22;;;47.70;35.00;45.60;100767;;;;578243;242;37092;-85
2023/06/25 10:25:40;;;;;;;5.78;4.70;;;47.30;35.00;44.20;100768;;;;577881;242;35129;-84
2023/06/25 10:28:08;;;;;;;5.87;4.78;;;46.30;35.70;43.50;100768;;;;583160;242;23132;-85
2023/06/25 10:30:51;;;;;;;6.10;4.57;;;45.40;36.30;43.10;100766;;;;583512;242;23107;-86
2023/06/25 10:33:22;;;;;;;6.28;4.62;;;44.70;37.00;42.10;100770;;;;583921;242;23053;-85
2023/06/25 10:35:49;;;;;;;4.82;4.28;;;43.10;38.10;41.00;100763;;;;583501;242;23073;-86
2023/06/25 10:38:16;;;;;;;7.50;5.57;;;42.00;39.20;39.80;100761;;;;592897;239;23108;-85
2023/06/25 10:40:47;;;;;;;7.22;4.03;;;41.90;39.10;38.80;100767;;;;582270;243;23076;-85
2023/06/25 10:43:21;;;;;;;5.80;4.70;;;40.70;40.60;38.20;100767;;;;573971;246;23084;-83
2023/06/25 10:45:54;;;;;;;5.78;4.53;;;39.40;42.20;37.30;100771;;;;581825;243;23112;-83
2023/06/25 10:48:26;;;;;;;4.90;4.50;;;38.10;43.60;36.00;100762;;;;584383;242;23074;-82
2023/06/25 10:50:54;;;;;;;4.72;4.25;;;35.40;46.60;34.50;100768;;;;584252;242;23069;-81
2023/06/25 10:53:19;;;;;;;5.75;4.43;;;35.30;46.30;33.10;100763;;;;583232;242;23064;-83
2023/06/25 10:55:47;;;;;;;6.30;4.62;;;34.00;48.60;32.20;100758;;;;583884;242;23064;-82
2023/06/25 10:58:16;;;;;;;5.85;3.85;;;33.00;50.70;31.20;100753;;;;583271;242;23085;-83
2023/06/25 11:00:43;;;;;;;6.85;4.90;;;31.90;51.80;30.30;100770;;;;563041;251;23207;-82
2023/06/25 11:03:14;;;;;;;5.75;4.78;;;31.00;53.40;29.50;100759;;;;582768;243;23067;-81
2023/06/25 11:05:39;;;;;;;4.72;3.92;;;30.20;55.00;28.80;100759;;;;564235;251;23122;-82
2023/06/25 11:08:11;;;;;;;6.63;4.30;;;29.40;56.40;28.20;100761;;;;582768;243;23095;-81
2023/06/25 11:10:34;;;;;;;5.47;4.10;;;28.80;57.60;27.70;100764;;;;583906;242;23072;-83